Areia Branca, Brazil
Current Conditions -  °F | °C
As of 3:00 PM on Thursday 29 Jan 2015 (Local Time) from SBAR Reporting Station
Light Rain Light Rain  
Wind Chill: 79°   Ceiling: Unl
Heat Index: 82°   Visibility: 2.5mi
Dew Point: 73°   Wind: 8mph
Humidity: 83%   Direction: 190°S
Pressure: 29.88"   Gusts: NA
Location:  10.76°S, 37.32°W
Report Text: SBAR 291800Z 19007KT 4000 -RA SCT017 SCT070 26/23 Q1012
Loading
Personal Weather Stations






























Interactive Weather Map New forecast layout! Learn more

10-Day Weather Forecast

Advertisements
Track Severe Weather on mobile